createdAt,value
2019-03-09T00:02:18.329Z,3.72
2019-03-09T00:04:48.664Z,4.83
2019-03-09T00:07:19.019Z,4.12
2019-03-09T00:09:49.379Z,4.50
2019-03-09T00:12:19.723Z,4.10
2019-03-09T00:14:50.059Z,4.00
2019-03-09T00:17:20.384Z,3.35
2019-03-09T00:19:50.742Z,3.40
2019-03-09T00:22:21.073Z,4.35
2019-03-09T00:24:53.045Z,4.28
2019-03-09T00:27:29.886Z,4.25
2019-03-09T00:29:58.684Z,4.28
2019-03-09T00:32:29.044Z,4.22
2019-03-09T00:34:59.354Z,3.50
2019-03-09T00:37:29.694Z,4.00
2019-03-09T00:40:00.029Z,3.45
2019-03-09T00:42:30.370Z,3.90
2019-03-09T00:45:00.782Z,4.62
2019-03-09T00:47:31.116Z,4.12
2019-03-09T00:50:01.468Z,3.98
2019-03-09T00:52:32.875Z,4.05
2019-03-09T00:55:03.476Z,4.62
2019-03-09T00:57:33.810Z,5.10
2019-03-09T01:00:06.161Z,5.00
2019-03-09T01:02:36.592Z,4.75
2019-03-09T01:05:09.135Z,4.55
2019-03-09T01:07:39.476Z,4.40
2019-03-09T01:10:13.892Z,5.05
2019-03-09T01:12:44.230Z,4.92
2019-03-09T01:15:15.862Z,5.25
2019-03-09T01:17:46.206Z,4.58
2019-03-09T01:20:17.182Z,4.83
2019-03-09T01:22:47.677Z,5.05
2019-03-09T01:25:18.009Z,4.72
2019-03-09T01:27:48.346Z,5.85
2019-03-09T01:30:19.023Z,5.03
2019-03-09T01:32:49.376Z,4.55
2019-03-09T01:35:19.735Z,5.33
2019-03-09T01:37:50.071Z,5.37
2019-03-09T01:40:20.404Z,5.10
2019-03-09T01:42:50.762Z,4.95
2019-03-09T01:45:21.097Z,4.70
2019-03-09T01:47:51.435Z,4.55
2019-03-09T01:50:21.772Z,5.15
2019-03-09T01:52:52.100Z,4.58
2019-03-09T01:55:22.428Z,4.60
2019-03-09T01:57:52.825Z,5.60
2019-03-09T02:00:23.171Z,5.40
2019-03-09T02:02:53.502Z,4.92
2019-03-09T02:05:23.832Z,5.20
2019-03-09T02:07:54.166Z,5.08
2019-03-09T02:10:24.501Z,4.65
2019-03-09T02:12:54.839Z,4.97
2019-03-09T02:15:25.174Z,4.87
2019-03-09T02:17:55.529Z,4.95
2019-03-09T02:20:25.851Z,5.83
2019-03-09T02:22:56.180Z,5.47
2019-03-09T02:25:26.515Z,5.60
2019-03-09T02:27:56.859Z,6.05
2019-03-09T02:30:27.197Z,6.30
2019-03-09T02:32:57.534Z,5.65
2019-03-09T02:35:27.990Z,6.97
2019-03-09T02:38:00.941Z,5.97
2019-03-09T02:40:31.272Z,7.30
2019-03-09T02:43:01.603Z,5.83
2019-03-09T02:45:32.808Z,5.42
2019-03-09T02:48:03.153Z,4.78
2019-03-09T02:50:33.484Z,4.37
2019-03-09T02:53:03.822Z,4.67
2019-03-09T02:55:34.156Z,4.47
2019-03-09T02:58:04.477Z,4.65
2019-03-09T03:00:36.779Z,3.85
2019-03-09T03:03:07.971Z,5.35
2019-03-09T03:05:38.309Z,3.80
2019-03-09T03:08:08.638Z,3.72
2019-03-09T03:10:39.000Z,3.30
2019-03-09T03:13:09.339Z,3.42
2019-03-09T03:15:39.705Z,3.27
2019-03-09T03:18:10.061Z,2.65
2019-03-09T03:20:40.401Z,3.52
2019-03-09T03:23:10.745Z,3.25
2019-03-09T03:25:41.089Z,2.20
2019-03-09T03:28:11.440Z,2.72
2019-03-09T03:30:41.807Z,1.92
2019-03-09T03:33:13.113Z,2.33
2019-03-09T03:35:43.450Z,2.08
2019-03-09T03:38:13.797Z,2.55
2019-03-09T03:40:44.137Z,2.80
2019-03-09T03:43:16.160Z,2.40
2019-03-09T03:45:46.610Z,1.80
2019-03-09T03:48:16.966Z,2.72
2019-03-09T03:50:48.682Z,2.42
2019-03-09T03:53:19.013Z,1.87
2019-03-09T03:55:49.431Z,2.58
2019-03-09T03:58:20.176Z,2.12
2019-03-09T04:00:50.592Z,2.02
2019-03-09T04:03:21.002Z,1.80
2019-03-09T04:05:51.344Z,1.60
2019-03-09T04:08:21.762Z,2.33
2019-03-09T04:10:52.341Z,1.90
2019-03-09T04:13:22.649Z,2.35
2019-03-09T04:15:53.021Z,2.17
2019-03-09T04:18:23.359Z,2.62
2019-03-09T04:20:53.709Z,2.22
2019-03-09T04:23:24.053Z,2.22
2019-03-09T04:25:54.381Z,1.55
2019-03-09T04:28:24.784Z,1.62
2019-03-09T04:30:55.112Z,1.87
2019-03-09T04:33:25.449Z,1.62
2019-03-09T04:35:55.786Z,1.85
2019-03-09T04:38:26.116Z,2.02
2019-03-09T04:40:56.459Z,2.45
2019-03-09T04:43:26.804Z,2.10
2019-03-09T04:45:57.147Z,2.30
2019-03-09T04:48:27.479Z,2.05
2019-03-09T04:50:57.816Z,1.55
2019-03-09T04:53:28.150Z,1.75
2019-03-09T04:55:58.494Z,1.90
2019-03-09T04:58:28.833Z,1.65
2019-03-09T05:00:59.175Z,2.00
2019-03-09T05:03:29.523Z,2.17
2019-03-09T05:05:59.858Z,1.80
2019-03-09T05:08:40.693Z,1.30
2019-03-09T05:11:12.237Z,1.55
2019-03-09T05:13:43.314Z,1.55
2019-03-09T05:16:13.628Z,1.95
2019-03-09T05:18:43.973Z,1.32
2019-03-09T05:21:14.301Z,1.37
2019-03-09T05:23:44.652Z,1.45
2019-03-09T05:26:14.993Z,1.55
2019-03-09T05:28:45.325Z,1.60
2019-03-09T05:31:15.667Z,1.50
2019-03-09T05:33:46.013Z,1.55
2019-03-09T05:36:16.381Z,1.45
2019-03-09T05:38:46.712Z,1.45
2019-03-09T05:41:17.040Z,1.70
2019-03-09T05:43:47.376Z,1.85
2019-03-09T05:46:17.714Z,1.57
2019-03-09T05:48:48.044Z,1.75
2019-03-09T05:51:18.388Z,1.35
2019-03-09T05:53:48.739Z,1.50
2019-03-09T05:56:19.080Z,1.70
2019-03-09T05:58:49.417Z,1.77
2019-03-09T06:01:19.762Z,1.40
2019-03-09T06:03:50.122Z,1.42
2019-03-09T06:06:20.453Z,1.37
2019-03-09T06:08:50.787Z,2.25
2019-03-09T06:11:21.120Z,1.35
2019-03-09T06:13:52.432Z,2.02
2019-03-09T06:16:22.862Z,1.65
2019-03-09T06:18:53.196Z,2.20
2019-03-09T06:21:23.540Z,2.27
2019-03-09T06:23:53.876Z,2.33
2019-03-09T06:26:24.227Z,1.92
2019-03-09T06:28:54.567Z,1.80
2019-03-09T06:31:25.885Z,2.02
2019-03-09T06:33:57.182Z,2.70
2019-03-09T06:36:49.424Z,2.33
2019-03-09T06:39:19.761Z,1.98
2019-03-09T06:42:00.463Z,2.35
2019-03-09T06:44:30.766Z,2.47
2019-03-09T06:47:01.184Z,2.00
2019-03-09T06:49:31.520Z,1.80
2019-03-09T06:52:01.931Z,1.55
2019-03-09T06:54:32.289Z,1.92
2019-03-09T06:57:02.734Z,2.22
2019-03-09T06:59:33.068Z,2.00
2019-03-09T07:02:03.486Z,2.27
2019-03-09T07:04:33.831Z,2.27
2019-03-09T07:07:04.339Z,1.80
2019-03-09T07:09:34.677Z,2.22
2019-03-09T07:12:05.090Z,2.12
2019-03-09T07:14:58.119Z,2.50
2019-03-09T07:17:28.445Z,2.55
2019-03-09T07:19:58.783Z,2.77
2019-03-09T07:22:29.122Z,2.77
2019-03-09T07:24:59.472Z,2.85
2019-03-09T07:27:29.810Z,2.40
2019-03-09T07:30:00.329Z,2.33
2019-03-09T07:32:30.756Z,2.65
2019-03-09T07:35:01.077Z,2.65
2019-03-09T07:37:31.971Z,3.05
2019-03-09T07:40:02.305Z,2.27
2019-03-09T07:42:34.066Z,2.00
2019-03-09T07:45:10.563Z,2.37
2019-03-09T07:47:40.919Z,2.45
2019-03-09T07:50:13.969Z,2.60
2019-03-09T07:52:44.368Z,2.33
2019-03-09T07:55:20.838Z,3.02
2019-03-09T07:57:52.064Z,2.90
2019-03-09T08:00:22.941Z,3.40
2019-03-09T08:02:53.272Z,2.75
2019-03-09T08:05:23.609Z,2.55
2019-03-09T08:07:53.945Z,3.00
2019-03-09T08:10:29.202Z,3.55
2019-03-09T08:12:59.567Z,2.33
2019-03-09T08:15:29.970Z,2.62
2019-03-09T08:18:01.385Z,2.65
2019-03-09T08:20:31.738Z,2.85
2019-03-09T08:23:02.069Z,2.60
2019-03-09T08:25:32.407Z,2.92
2019-03-09T08:28:02.756Z,2.37
2019-03-09T08:30:34.709Z,2.42
2019-03-09T08:33:05.132Z,2.55
2019-03-09T08:35:35.462Z,2.60
2019-03-09T08:38:05.802Z,2.33
2019-03-09T08:40:36.132Z,2.60
2019-03-09T08:43:06.460Z,2.83
2019-03-09T08:45:36.821Z,3.00
2019-03-09T08:48:07.174Z,3.05
2019-03-09T08:50:37.490Z,3.12
2019-03-09T08:53:07.877Z,3.22
2019-03-09T08:55:38.220Z,2.87
2019-03-09T08:58:08.543Z,2.30
2019-03-09T09:00:38.978Z,2.55
2019-03-09T09:03:09.321Z,2.85
2019-03-09T09:05:43.700Z,2.65
2019-03-09T09:08:17.047Z,2.60
2019-03-09T09:10:47.402Z,2.58
2019-03-09T09:13:17.735Z,3.15
2019-03-09T09:15:48.216Z,2.30
2019-03-09T09:18:18.614Z,2.85
2019-03-09T09:20:48.974Z,2.87
2019-03-09T09:23:19.317Z,2.52
2019-03-09T09:25:49.710Z,2.70
2019-03-09T09:28:20.028Z,2.70
2019-03-09T09:30:50.378Z,2.30
2019-03-09T09:33:20.722Z,2.80
2019-03-09T09:35:51.060Z,3.27
2019-03-09T09:38:21.417Z,2.42
2019-03-09T09:40:51.860Z,3.42
2019-03-09T09:43:23.174Z,2.70
2019-03-09T09:45:53.518Z,3.12
2019-03-09T09:48:23.853Z,3.37
2019-03-09T09:50:54.195Z,2.42
2019-03-09T09:53:24.536Z,2.83
2019-03-09T09:55:54.899Z,3.10
2019-03-09T09:58:25.236Z,2.98
2019-03-09T10:00:55.581Z,2.72
2019-03-09T10:03:25.925Z,2.95
2019-03-09T10:05:56.264Z,3.50
2019-03-09T10:08:27.578Z,2.62
2019-03-09T10:10:57.927Z,2.80
2019-03-09T10:13:28.264Z,2.52
2019-03-09T10:15:58.607Z,2.35
2019-03-09T10:18:28.944Z,3.30
2019-03-09T10:20:59.288Z,4.45
2019-03-09T10:23:29.630Z,3.30
2019-03-09T10:26:00.048Z,2.67
2019-03-09T10:28:30.380Z,3.10
2019-03-09T10:31:00.729Z,3.58
2019-03-09T10:33:31.076Z,2.95
2019-03-09T10:36:01.423Z,2.77
2019-03-09T10:38:31.767Z,2.72
2019-03-09T10:41:02.119Z,3.25
2019-03-09T10:43:35.418Z,2.52
2019-03-09T10:46:05.763Z,3.37
2019-03-09T10:48:36.120Z,2.85
2019-03-09T10:51:06.451Z,3.70
2019-03-09T10:53:36.873Z,3.62
2019-03-09T10:56:09.188Z,2.95
2019-03-09T10:58:39.530Z,3.45
2019-03-09T11:01:10.440Z,4.20
2019-03-09T11:03:40.785Z,5.30
2019-03-09T11:06:11.125Z,6.37
2019-03-09T11:08:41.457Z,5.62
2019-03-09T11:11:12.775Z,5.65
2019-03-09T11:13:51.374Z,5.22
2019-03-09T11:16:15.261Z,4.50
2019-03-09T11:18:45.599Z,5.08
2019-03-09T11:21:16.015Z,3.83
2019-03-09T11:23:46.438Z,3.98
2019-03-09T11:26:16.776Z,4.20
2019-03-09T11:28:47.118Z,3.25
2019-03-09T11:31:17.456Z,3.62
2019-03-09T11:33:47.794Z,3.42
2019-03-09T11:36:18.153Z,3.27
2019-03-09T11:38:48.493Z,2.92
2019-03-09T11:41:19.544Z,3.25
2019-03-09T11:43:49.909Z,3.20
2019-03-09T11:46:20.260Z,3.83
2019-03-09T11:48:50.590Z,3.40
2019-03-09T11:51:20.949Z,3.40
2019-03-09T11:53:53.720Z,3.50
2019-03-09T11:56:23.983Z,3.15
2019-03-09T11:58:54.318Z,3.77
2019-03-09T12:01:24.670Z,3.95
2019-03-09T12:03:55.010Z,4.40
2019-03-09T12:06:25.363Z,4.53
2019-03-09T12:08:55.713Z,4.65
2019-03-09T12:11:26.054Z,3.40
2019-03-09T12:13:56.421Z,4.42
2019-03-09T12:16:26.763Z,5.47
2019-03-09T12:18:57.117Z,5.20
2019-03-09T12:21:27.461Z,4.55
2019-03-09T12:23:57.807Z,4.00
2019-03-09T12:26:28.155Z,4.45
2019-03-09T12:28:58.510Z,4.92
2019-03-09T12:31:28.848Z,4.78
2019-03-09T12:33:59.203Z,5.00
2019-03-09T12:36:29.542Z,4.65
2019-03-09T12:38:59.956Z,4.53
2019-03-09T12:41:30.322Z,4.60
2019-03-09T12:44:00.673Z,4.30
2019-03-09T12:46:31.989Z,4.92
2019-03-09T12:49:02.411Z,5.05
2019-03-09T12:51:32.763Z,5.37
2019-03-09T12:54:03.113Z,4.70
2019-03-09T12:56:33.466Z,4.42
2019-03-09T13:02:14.989Z,4.90
2019-03-09T13:04:45.994Z,5.22
2019-03-09T13:07:16.841Z,4.72
2019-03-09T13:09:52.568Z,4.85
2019-03-09T13:12:23.285Z,5.42
2019-03-09T13:15:04.644Z,5.78
2019-03-09T13:17:34.577Z,4.80
2019-03-09T13:20:07.889Z,5.60
2019-03-09T13:22:40.503Z,4.97
2019-03-09T13:25:11.805Z,4.40
2019-03-09T13:27:42.807Z,4.28
2019-03-09T13:30:19.728Z,5.33
2019-03-09T13:32:50.845Z,4.10
2019-03-09T13:35:23.062Z,4.90
2019-03-09T13:37:53.762Z,3.42
2019-03-09T13:40:24.316Z,3.42
2019-03-09T13:42:58.977Z,4.70
2019-03-09T13:45:29.604Z,5.42
2019-03-09T13:48:02.881Z,4.87
2019-03-09T13:50:34.963Z,5.37
2019-03-09T13:53:07.150Z,4.95
2019-03-09T13:55:37.537Z,4.62
2019-03-09T13:58:10.839Z,4.15
2019-03-09T14:00:45.921Z,3.20
2019-03-09T14:03:16.997Z,2.85
2019-03-09T14:05:47.652Z,2.50
2019-03-09T14:08:18.420Z,2.08
2019-03-09T14:10:48.966Z,1.22
2019-03-09T14:13:22.714Z,0.88
2019-03-09T14:15:57.327Z,0.70
2019-03-09T14:18:32.419Z,0.75
2019-03-09T14:21:04.390Z,0.60
2019-03-09T14:23:37.067Z,0.50
2019-03-09T14:26:12.226Z,0.50
2019-03-09T14:28:42.971Z,0.60
2019-03-09T14:31:14.113Z,1.32
2019-03-09T14:33:44.920Z,1.67
2019-03-09T14:36:15.718Z,1.52
2019-03-09T14:38:46.432Z,2.55
2019-03-09T14:41:20.244Z,2.47
2019-03-09T14:43:56.295Z,2.30
2019-03-09T14:46:26.751Z,2.08
2019-03-09T14:48:57.482Z,2.50
2019-03-09T14:51:29.651Z,1.67
2019-03-09T14:54:00.654Z,2.15
2019-03-09T14:59:25.941Z,1.40
2019-03-09T15:01:58.115Z,1.45
2019-03-09T15:04:33.361Z,1.30
2019-03-09T15:07:09.879Z,1.50
2019-03-09T15:09:45.316Z,1.32
2019-03-09T15:12:15.911Z,1.12
2019-03-09T15:14:46.482Z,1.72
2019-03-09T15:17:17.233Z,1.20
2019-03-09T15:19:51.022Z,1.87
2019-03-09T15:22:22.089Z,1.30
2019-03-09T15:24:52.700Z,1.30
2019-03-09T15:27:27.032Z,2.10
2019-03-09T15:29:58.108Z,1.80
2019-03-09T15:32:40.584Z,1.52
2019-03-09T15:35:19.811Z,1.70
2019-03-09T15:37:56.479Z,1.75
2019-03-09T15:40:28.855Z,1.75
2019-03-09T15:43:09.834Z,1.75
2019-03-09T15:45:43.365Z,2.35
2019-03-09T15:48:15.101Z,2.27
2019-03-09T15:50:45.752Z,3.25
2019-03-09T15:53:17.892Z,1.95
2019-03-09T15:55:54.496Z,1.90
2019-03-09T15:58:28.095Z,2.50
2019-03-09T16:01:01.328Z,1.80
2019-03-09T16:03:32.962Z,1.85
2019-03-09T16:06:05.281Z,1.50
2019-03-09T16:08:38.425Z,1.60
2019-03-09T16:11:12.213Z,2.40
2019-03-09T16:13:49.009Z,1.40
2019-03-09T16:16:21.067Z,1.30
2019-03-09T16:18:57.310Z,1.20
2019-03-09T16:21:28.161Z,1.75
2019-03-09T16:23:58.785Z,1.27
2019-03-09T16:26:29.331Z,1.42
2019-03-09T16:28:59.606Z,1.15
2019-03-09T16:31:29.945Z,1.75
2019-03-09T16:34:00.282Z,1.80
2019-03-09T16:36:30.706Z,2.10
2019-03-09T16:39:01.044Z,1.30
2019-03-09T16:41:33.284Z,1.32
2019-03-09T16:44:03.627Z,1.70
2019-03-09T16:46:34.039Z,1.65
2019-03-09T16:49:04.384Z,2.08
2019-03-09T16:51:34.738Z,1.75
2019-03-09T16:54:05.073Z,1.70
2019-03-09T16:56:35.426Z,2.33
2019-03-09T16:59:05.764Z,2.67
2019-03-09T17:01:36.107Z,2.72
2019-03-09T17:04:06.450Z,3.42
2019-03-09T17:06:36.862Z,2.58
2019-03-09T17:09:07.431Z,2.75
2019-03-09T17:11:37.876Z,1.80
2019-03-09T17:14:08.247Z,2.02
2019-03-09T17:16:38.576Z,1.82
2019-03-09T17:19:08.916Z,2.15
2019-03-09T17:21:39.275Z,2.27
2019-03-09T17:24:11.233Z,2.22
2019-03-09T17:26:41.590Z,1.50
2019-03-09T17:29:11.938Z,1.57
2019-03-09T17:31:42.288Z,2.25
2019-03-09T17:34:12.670Z,5.22
2019-03-09T17:36:43.108Z,2.50
2019-03-09T17:39:13.557Z,2.10
2019-03-09T17:41:43.907Z,1.98
2019-03-09T17:44:14.280Z,2.20
2019-03-09T17:46:44.615Z,1.87
2019-03-09T17:49:14.995Z,2.55
2019-03-09T17:51:45.386Z,1.92
2019-03-09T17:54:15.744Z,2.40
2019-03-09T17:56:46.099Z,2.22
2019-03-09T17:59:16.466Z,2.00
2019-03-09T18:01:46.810Z,1.98
2019-03-09T18:04:17.169Z,1.82
2019-03-09T18:06:47.549Z,2.45
2019-03-09T18:09:17.848Z,2.37
2019-03-09T18:11:48.238Z,2.40
2019-03-09T18:14:18.608Z,2.60
2019-03-09T18:16:52.672Z,3.15
2019-03-09T18:19:21.011Z,2.85
2019-03-09T18:21:59.096Z,2.75
2019-03-09T18:24:29.450Z,3.15
2019-03-09T18:27:00.044Z,3.25
2019-03-09T18:29:30.388Z,2.87
2019-03-09T18:32:00.727Z,2.60
2019-03-09T18:34:32.049Z,2.60
2019-03-09T18:37:02.402Z,2.80
2019-03-09T18:39:32.794Z,3.22
2019-03-09T18:42:03.132Z,4.35
2019-03-09T18:44:33.482Z,3.33
2019-03-09T18:47:03.888Z,3.58
2019-03-09T18:49:34.241Z,2.75
2019-03-09T18:52:04.611Z,3.17
2019-03-09T18:54:34.980Z,3.30
2019-03-09T18:57:05.350Z,3.83
2019-03-09T18:59:36.624Z,2.95
2019-03-09T19:02:07.009Z,2.85
2019-03-09T19:04:37.355Z,2.90
2019-03-09T19:07:07.699Z,2.35
2019-03-09T19:09:38.057Z,3.00
2019-03-09T19:12:08.410Z,3.10
2019-03-09T19:14:41.400Z,2.72
2019-03-09T19:17:11.780Z,2.70
2019-03-09T19:19:42.816Z,3.45
2019-03-09T19:22:13.157Z,3.58
2019-03-09T19:24:43.538Z,3.65
2019-03-09T19:27:13.974Z,3.40
2019-03-09T19:29:44.349Z,3.15
2019-03-09T19:32:14.778Z,3.52
2019-03-09T19:34:45.080Z,3.42
2019-03-09T19:37:15.476Z,3.02
2019-03-09T19:39:45.869Z,3.37
2019-03-09T19:42:16.300Z,3.27
2019-03-09T19:44:46.680Z,2.98
2019-03-09T19:47:16.972Z,2.50
2019-03-09T19:49:47.344Z,3.42
2019-03-09T19:52:17.722Z,3.12
2019-03-09T19:54:48.069Z,3.10
2019-03-09T19:57:18.431Z,3.45
2019-03-09T19:59:48.801Z,2.60
2019-03-09T20:02:19.145Z,2.60
2019-03-09T20:04:49.582Z,2.37
2019-03-09T20:07:19.916Z,2.42
2019-03-09T20:09:50.281Z,2.60
2019-03-09T20:12:20.895Z,2.85
2019-03-09T20:14:51.343Z,1.80
2019-03-09T20:17:21.691Z,3.05
2019-03-09T20:19:52.143Z,3.55
2019-03-09T20:22:22.633Z,3.10
2019-03-09T20:24:53.008Z,1.95
2019-03-09T20:27:23.907Z,2.47
2019-03-09T20:29:55.847Z,3.58
2019-03-09T20:32:26.242Z,2.37
2019-03-09T20:34:56.543Z,2.83
2019-03-09T20:37:27.886Z,2.58
2019-03-09T20:39:59.852Z,3.05
2019-03-09T20:42:30.259Z,2.17
2019-03-09T20:45:00.536Z,3.27
2019-03-09T20:47:31.012Z,1.85
2019-03-09T20:50:03.007Z,3.47
2019-03-09T20:52:35.943Z,2.87
2019-03-09T20:55:07.432Z,2.37
2019-03-09T20:57:37.785Z,2.62
2019-03-09T21:00:17.370Z,2.90
2019-03-09T21:02:47.722Z,2.40
2019-03-09T21:05:18.168Z,2.65
2019-03-09T21:07:48.585Z,2.75
2019-03-09T21:10:20.343Z,2.85
2019-03-09T21:13:11.585Z,2.65
2019-03-09T21:15:41.986Z,3.20
2019-03-09T21:18:12.407Z,2.85
2019-03-09T21:20:42.830Z,2.45
2019-03-09T21:23:13.183Z,2.90
2019-03-09T21:25:43.541Z,2.42
2019-03-09T21:28:13.902Z,2.83
2019-03-09T21:30:44.249Z,3.20
2019-03-09T21:33:14.591Z,3.50
2019-03-09T21:35:44.968Z,3.42
2019-03-09T21:38:15.299Z,2.67
2019-03-09T21:40:45.678Z,3.10
2019-03-09T21:43:16.017Z,2.22
2019-03-09T21:45:46.396Z,2.67
2019-03-09T21:48:16.749Z,2.55
2019-03-09T21:50:47.162Z,2.27
2019-03-09T21:53:17.449Z,2.25
2019-03-09T21:55:47.803Z,1.90
2019-03-09T21:58:18.134Z,2.10
2019-03-09T22:00:48.633Z,2.50
2019-03-09T22:03:18.909Z,3.30
2019-03-09T22:05:49.268Z,3.05
2019-03-09T22:08:19.679Z,3.55
2019-03-09T22:10:50.015Z,2.70
2019-03-09T22:13:20.352Z,2.55
2019-03-09T22:15:50.756Z,2.72
2019-03-09T22:18:21.094Z,2.70
2019-03-09T22:20:51.532Z,2.47
2019-03-09T22:23:21.862Z,2.27
2019-03-09T22:25:52.226Z,2.92
2019-03-09T22:28:22.578Z,3.20
2019-03-09T22:30:52.958Z,2.42
2019-03-09T22:33:23.286Z,2.85
2019-03-09T22:35:53.649Z,2.10
2019-03-09T22:38:24.973Z,2.92
2019-03-09T22:40:55.350Z,2.72
2019-03-09T22:43:25.695Z,3.12
2019-03-09T22:45:57.645Z,2.70
2019-03-09T22:48:27.987Z,2.75
2019-03-09T22:50:58.348Z,2.25
2019-03-09T22:53:28.701Z,3.50
2019-03-09T22:55:59.097Z,2.60
2019-03-09T22:58:29.442Z,2.45
2019-03-09T23:01:01.331Z,4.20
2019-03-09T23:03:32.294Z,2.95
2019-03-09T23:06:02.784Z,3.33
2019-03-09T23:08:40.504Z,2.85
2019-03-09T23:11:10.890Z,2.40
2019-03-09T23:13:41.245Z,2.42
2019-03-09T23:16:11.603Z,2.92
2019-03-09T23:18:41.952Z,2.65
2019-03-09T23:21:12.305Z,2.92
2019-03-09T23:23:42.642Z,3.17
2019-03-09T23:26:13.014Z,2.87
2019-03-09T23:28:47.886Z,2.22
2019-03-09T23:31:19.215Z,3.10
2019-03-09T23:33:49.554Z,2.45
2019-03-09T23:36:19.910Z,2.55
2019-03-09T23:38:50.305Z,3.60
2019-03-09T23:41:20.674Z,3.08
2019-03-09T23:43:51.081Z,2.52
2019-03-09T23:46:21.509Z,2.37
2019-03-09T23:48:53.453Z,3.00
2019-03-09T23:51:23.798Z,1.90
2019-03-09T23:53:54.147Z,2.50
2019-03-09T23:56:24.508Z,2.40
2019-03-09T23:58:54.848Z,2.10
